Irwin, Missouri
Current Conditions -  °F | °C
As of 10:55 AM on Friday 24 Oct 2014 (Local Time) from KPTS Reporting Station
Clear Clear  
Wind Chill: 64°   Ceiling: Unl
Heat Index: 64°   Visibility: 10mi
Dew Point: 59°   Wind: 10mph
Humidity: 84%   Direction: 230°SW
Pressure: 30.1"   Gusts: 16mph
Location:  37.5121°N, 94.2674°W
Report Text: KPTS 241555Z AUTO 23009G14KT 10SM CLR 18/15 A3010 RMK AO2 T01760148
Loading
Personal Weather Stations






























Interactive Weather Map
Tropical Storm Tracking
New forecast layout! Learn more

10-Day Weather Forecast

Advertisements
Track Severe Weather on mobile